Yatesville, GA

8:23 PM EDT on August 29, 2014 (GMT -0400)
Thomaston-Upson County | Change Station
CLOSE
Current Station
Airport
Location: Thomaston,
Elevation: 797 ft
Nearby Weather Stations

Elev 797 ft 32.95 °N, 84.26 °W | Updated 8 minutes ago

Clear
Clear
86 °F
Feels Like 86 °F
N
0
Wind Variable Wind from North

Today
High -- | Low -- °F
--% Chance of Precip.
Yesterday
High -- | Low -- °F
Precip. -- in
7:09 AM 8:05 PM
Waxing Crescent, 17% visible
Pressure 30.03 in
Visibility 10.0 miles
Clouds Clear
Heat Index 86 °F
Dew Point 61 °F
Humidity 43%
Rainfall 0.00 in
Snow Depth Not available.
UV 0 out of 12
Pollen 8.10 out of 12
Ozone Good
PM2.5 Good
Flu Activity Not available.
METAR KOPN 300015Z AUTO 00000KT 10SM CLR 30/16 A3003 RMK AO2

More Conditions Fewer Conditions

Pressure 30.03 in
Visibility 10.0 miles
Clouds Clear
Heat Index 86 °F
Dew Point 61 °F
Humidity 43%
Rainfall 0.00 in
Snow Depth Not available.
UV 0 out of 12
Pollen 8.10 out of 12
Ozone Good
PM2.5 Good
Flu Activity Not available.
METAR KOPN 300015Z AUTO 00000KT 10SM CLR 30/16 A3003 RMK AO2

More Conditions Fewer Conditions

10-Day Weather Forecast

Almanac

Astronomy

Aug. 29, 2014 Rise Set
Actual Time 7:09 AM EDT 8:05 PM EDT
Civil Twilight 6:43 AM EDT 8:30 PM EDT
Nautical Twilight 6:13 AM EDT 9:00 PM EDT
Astronomical Twilight 5:43 AM EDT 9:31 PM EDT
Moon 10:43 AM EDT (8/29) 10:17 PM EDT (8/29)
Length of Visible Light 13h 46m
Length of Day
12h 56m
Tomorrow will be 1m 56s shorter.
Waxing Crescent, 17% of the Moon is Illuminated
Today
Waxing Crescent
Sep 2
First Quarter
Sep 8
Full
Sep 15
Last Quarter
Sep 24
New

Today's Extremes

State Highs State Lows

Community

WunderPhotos

Upload Photos

1,748,384 photos uploaded!

Nearby

Air Quality

  Air Quality AQ Index Pollutant
Yesterday Moderate
OZONE
Yesterday Good
PM2.5
Current Good
PM2.5
Current Good
OZONE
Friday Moderate
OZONE
Saturday Good
OZONE

Snow Depth

Station Depth Elevation
No new snow has been reported.

Earthquake Activity

City Distance Mag. Time & Date
No recent earthquake activity has been reported nearby.
Minimum magnitude displayed is 2.5.

Coastal Water Temperatures

Place Temperature
No Stations Reporting

Nearby Weather Stations